createdAt,value
2023-02-27T00:01:54.969Z,5.82
2023-02-27T00:04:56.448Z,5.40
2023-02-27T00:07:57.848Z,5.47
2023-02-27T00:10:59.200Z,5.68
2023-02-27T00:14:00.567Z,5.50
2023-02-27T00:17:02.116Z,6.70
2023-02-27T00:20:05.564Z,5.55
2023-02-27T00:23:08.032Z,5.25
2023-02-27T00:26:09.436Z,5.00
2023-02-27T00:29:11.495Z,5.60
2023-02-27T00:32:12.984Z,5.13
2023-02-27T00:35:14.367Z,5.93
2023-02-27T00:38:15.753Z,6.43
2023-02-27T00:41:17.131Z,7.78
2023-02-27T00:44:18.636Z,6.50
2023-02-27T00:47:20.624Z,6.05
2023-02-27T00:50:22.042Z,6.22
2023-02-27T00:53:23.681Z,6.60
2023-02-27T00:56:25.087Z,6.57
2023-02-27T00:59:26.474Z,6.47
2023-02-27T01:02:27.898Z,6.05
2023-02-27T01:05:30.734Z,6.05
2023-02-27T01:08:34.301Z,6.10
2023-02-27T01:11:41.478Z,5.70
2023-02-27T01:14:42.908Z,5.90
2023-02-27T01:17:44.463Z,5.95
2023-02-27T01:20:45.923Z,6.10
2023-02-27T01:23:48.007Z,5.25
2023-02-27T01:26:49.406Z,5.18
2023-02-27T01:29:50.800Z,5.88
2023-02-27T01:32:52.299Z,5.13
2023-02-27T01:35:53.730Z,5.22
2023-02-27T01:38:55.153Z,5.57
2023-02-27T01:41:56.538Z,5.35
2023-02-27T01:45:20.380Z,5.85
2023-02-27T01:48:35.499Z,6.07
2023-02-27T01:51:45.718Z,6.43
2023-02-27T01:54:47.443Z,5.57
2023-02-27T01:57:49.954Z,5.25
2023-02-27T02:00:51.357Z,6.03
2023-02-27T02:04:15.050Z,5.80
2023-02-27T02:07:19.050Z,6.03
2023-02-27T02:10:21.756Z,6.30
2023-02-27T02:13:23.266Z,5.47
2023-02-27T02:17:14.258Z,5.53
2023-02-27T02:20:40.916Z,5.20
2023-02-27T02:23:54.112Z,5.55
2023-02-27T02:27:13.991Z,6.05
2023-02-27T02:30:43.772Z,5.55
2023-02-27T02:34:10.694Z,5.60
2023-02-27T02:37:18.117Z,6.43
2023-02-27T02:40:28.958Z,5.78
2023-02-27T02:43:41.208Z,5.50
2023-02-27T02:46:57.261Z,5.63
2023-02-27T02:50:25.985Z,5.63
2023-02-27T02:53:51.089Z,5.72
2023-02-27T02:57:02.360Z,6.13
2023-02-27T03:00:14.946Z,6.00
2023-02-27T03:03:26.493Z,5.32
2023-02-27T03:06:34.504Z,6.43
2023-02-27T03:09:42.579Z,5.90
2023-02-27T03:12:52.808Z,5.85
2023-02-27T03:16:02.288Z,5.70
2023-02-27T03:19:11.212Z,6.63
2023-02-27T03:22:21.834Z,6.50
2023-02-27T03:25:25.753Z,6.50
2023-02-27T03:28:33.247Z,6.20
2023-02-27T03:31:38.286Z,6.53
2023-02-27T03:34:41.254Z,5.32
2023-02-27T03:38:02.944Z,5.90
2023-02-27T03:41:15.095Z,5.55
2023-02-27T03:44:46.150Z,5.80
2023-02-27T03:47:47.963Z,6.22
2023-02-27T03:50:49.427Z,6.40
2023-02-27T03:54:00.196Z,5.95
2023-02-27T03:57:07.764Z,6.70
2023-02-27T04:00:13.897Z,6.95
2023-02-27T04:03:15.320Z,6.57
2023-02-27T04:06:16.937Z,5.55
2023-02-27T04:09:48.628Z,6.07
2023-02-27T04:12:52.983Z,5.10
2023-02-27T04:15:57.226Z,5.40
2023-02-27T04:19:19.954Z,5.75
2023-02-27T04:22:40.228Z,5.18
2023-02-27T04:26:08.843Z,6.15
2023-02-27T04:29:53.178Z,4.95
2023-02-27T04:33:21.884Z,5.22
2023-02-27T04:36:47.434Z,6.05
2023-02-27T04:39:56.318Z,5.75
2023-02-27T04:43:01.065Z,5.85
2023-02-27T04:46:06.940Z,5.38
2023-02-27T04:49:20.368Z,5.45
2023-02-27T04:52:32.202Z,5.65
2023-02-27T04:55:38.913Z,6.57
2023-02-27T04:58:47.212Z,6.20
2023-02-27T05:01:54.774Z,5.72
2023-02-27T05:04:59.369Z,5.28
2023-02-27T05:08:08.234Z,6.20
2023-02-27T05:11:20.664Z,5.68
2023-02-27T05:14:30.442Z,5.68
2023-02-27T05:17:36.585Z,5.63
2023-02-27T05:20:51.010Z,4.90
2023-02-27T05:24:20.838Z,7.85
2023-02-27T05:27:38.319Z,5.72
2023-02-27T05:30:39.654Z,5.95
2023-02-27T05:34:05.529Z,7.10
2023-02-27T05:37:22.071Z,5.50
2023-02-27T05:40:29.733Z,5.07
2023-02-27T05:43:49.246Z,6.57
2023-02-27T05:47:00.469Z,6.00
2023-02-27T05:50:12.968Z,6.55
2023-02-27T05:53:18.791Z,6.20
2023-02-27T05:56:23.423Z,6.75
2023-02-27T05:59:38.644Z,6.85
2023-02-27T06:02:42.360Z,6.22
2023-02-27T06:05:46.794Z,6.75
2023-02-27T06:08:48.247Z,6.90
2023-02-27T06:11:49.648Z,7.43
2023-02-27T06:14:51.044Z,7.35
2023-02-27T06:17:52.424Z,7.57
2023-02-27T06:20:54.134Z,7.63
2023-02-27T06:23:55.548Z,7.28
2023-02-27T06:26:56.954Z,8.10
2023-02-27T06:29:58.330Z,6.72
2023-02-27T06:32:59.731Z,8.13
2023-02-27T06:36:01.248Z,11.35
2023-02-27T06:39:02.693Z,12.77
2023-02-27T06:42:04.221Z,10.93
2023-02-27T06:45:06.850Z,7.93
2023-02-27T06:48:08.850Z,7.55
2023-02-27T06:51:10.240Z,7.63
2023-02-27T06:54:11.646Z,8.27
2023-02-27T06:57:13.044Z,12.60
2023-02-27T07:00:15.694Z,7.65
2023-02-27T07:03:17.092Z,6.55
2023-02-27T07:06:18.605Z,7.18
2023-02-27T07:09:20.095Z,5.80
2023-02-27T07:12:21.592Z,6.13
2023-02-27T07:15:23.054Z,6.20
2023-02-27T07:18:24.461Z,6.68
2023-02-27T07:21:25.888Z,7.60
2023-02-27T07:24:27.329Z,8.65
2023-02-27T07:27:28.719Z,6.63
2023-02-27T07:30:30.133Z,7.07
2023-02-27T07:33:31.533Z,6.85
2023-02-27T07:36:33.482Z,6.15
2023-02-27T07:39:34.934Z,6.70
2023-02-27T07:42:36.411Z,6.32
2023-02-27T07:45:37.785Z,5.90
2023-02-27T07:48:39.184Z,6.90
2023-02-27T07:51:40.564Z,6.93
2023-02-27T07:54:42.040Z,6.07
2023-02-27T07:57:44.768Z,6.40
2023-02-27T08:00:46.195Z,7.72
2023-02-27T08:03:47.705Z,7.32
2023-02-27T08:06:49.257Z,6.88
2023-02-27T08:09:51.175Z,7.00
2023-02-27T08:12:53.239Z,7.25
2023-02-27T08:15:54.716Z,6.80
2023-02-27T08:18:56.861Z,7.75
2023-02-27T08:21:58.223Z,7.60
2023-02-27T08:24:59.747Z,7.43
2023-02-27T08:28:01.166Z,6.55
2023-02-27T08:31:02.623Z,7.53
2023-02-27T08:34:10.428Z,6.22
2023-02-27T08:37:12.163Z,7.22
2023-02-27T08:40:13.540Z,6.82
2023-02-27T08:43:14.941Z,6.30
2023-02-27T08:46:16.358Z,6.72
2023-02-27T08:49:20.538Z,6.78
2023-02-27T08:52:24.949Z,7.47
2023-02-27T08:55:26.493Z,6.13
2023-02-27T08:58:27.917Z,6.25
2023-02-27T09:01:29.720Z,6.78
2023-02-27T09:04:31.375Z,5.70
2023-02-27T09:07:32.760Z,6.50
2023-02-27T09:10:34.367Z,6.28
2023-02-27T09:13:35.906Z,5.90
2023-02-27T09:16:37.434Z,6.00
2023-02-27T09:19:38.853Z,6.05
2023-02-27T09:22:40.297Z,6.18
2023-02-27T09:25:41.714Z,5.40
2023-02-27T09:28:43.214Z,4.97
2023-02-27T09:31:44.733Z,4.80
2023-02-27T09:34:46.174Z,5.05
2023-02-27T09:37:47.853Z,5.40
2023-02-27T09:40:52.508Z,4.50
2023-02-27T09:43:53.946Z,4.57
2023-02-27T09:46:55.484Z,4.63
2023-02-27T09:50:02.090Z,3.97
2023-02-27T09:53:06.038Z,3.67
2023-02-27T09:56:21.133Z,3.97
2023-02-27T09:59:41.174Z,2.85
2023-02-27T10:03:11.492Z,2.45
2023-02-27T10:06:33.786Z,2.20
2023-02-27T10:09:54.496Z,2.50
2023-02-27T10:13:31.217Z,2.33
2023-02-27T10:16:34.042Z,2.53
2023-02-27T10:19:40.569Z,2.75
2023-02-27T10:22:45.944Z,2.83
2023-02-27T10:25:50.321Z,2.03
2023-02-27T10:28:52.117Z,2.35
2023-02-27T10:31:59.776Z,2.97
2023-02-27T10:35:21.256Z,2.45
2023-02-27T10:38:33.090Z,2.10
2023-02-27T10:41:39.977Z,2.10
2023-02-27T10:44:41.984Z,2.08
2023-02-27T10:47:44.195Z,2.13
2023-02-27T10:50:48.208Z,1.80
2023-02-27T10:53:50.560Z,1.98
2023-02-27T10:56:58.130Z,2.53
2023-02-27T11:00:07.153Z,2.00
2023-02-27T11:03:19.489Z,1.98
2023-02-27T11:06:24.352Z,2.50
2023-02-27T11:09:29.192Z,2.80
2023-02-27T11:12:34.204Z,3.00
2023-02-27T11:15:37.918Z,2.63
2023-02-27T11:18:42.000Z,3.03
2023-02-27T11:22:00.262Z,2.42
2023-02-27T11:25:21.091Z,2.83
2023-02-27T11:28:28.436Z,2.92
2023-02-27T11:31:31.808Z,3.97
2023-02-27T11:37:40.186Z,4.63
2023-02-27T11:40:50.497Z,2.65
2023-02-27T11:43:53.139Z,3.40
2023-02-27T11:47:09.302Z,4.20
2023-02-27T11:50:39.957Z,4.68
2023-02-27T11:53:48.968Z,4.15
2023-02-27T11:57:20.101Z,4.57
2023-02-27T12:00:42.950Z,3.33
2023-02-27T12:03:55.140Z,3.60
2023-02-27T12:07:14.316Z,4.05
2023-02-27T12:10:24.794Z,3.85
2023-02-27T12:13:30.401Z,2.47
2023-02-27T12:16:39.014Z,2.58
2023-02-27T12:19:56.860Z,2.92
2023-02-27T12:23:01.412Z,2.90
2023-02-27T12:26:10.721Z,2.40
2023-02-27T12:29:28.139Z,2.78
2023-02-27T12:33:01.389Z,1.67
2023-02-27T12:36:04.788Z,1.70
2023-02-27T12:42:36.411Z,1.88
2023-02-27T12:45:59.289Z,1.25
2023-02-27T12:49:11.843Z,1.27
2023-02-27T12:52:32.321Z,1.20
2023-02-27T12:55:41.475Z,1.10
2023-02-27T12:58:48.744Z,1.17
2023-02-27T13:01:58.974Z,1.40
2023-02-27T13:05:18.478Z,1.10
2023-02-27T13:08:57.396Z,2.30
2023-02-27T13:12:16.056Z,1.70
2023-02-27T13:15:26.058Z,2.50
2023-02-27T13:18:40.031Z,1.73
2023-02-27T13:21:47.152Z,1.33
2023-02-27T13:24:54.877Z,1.65
2023-02-27T13:28:05.058Z,1.85
2023-02-27T13:31:15.393Z,1.60
2023-02-27T13:34:25.932Z,1.95
2023-02-27T13:37:57.789Z,1.40
2023-02-27T13:41:24.813Z,1.17
2023-02-27T13:44:40.953Z,0.93
2023-02-27T13:47:49.129Z,1.10
2023-02-27T13:50:51.959Z,1.10
2023-02-27T13:54:07.704Z,1.30
2023-02-27T13:57:18.404Z,1.40
2023-02-27T14:00:26.744Z,1.30
2023-02-27T14:03:30.377Z,1.40
2023-02-27T14:06:32.175Z,1.35
2023-02-27T14:09:38.014Z,1.45
2023-02-27T14:12:45.713Z,1.60
2023-02-27T14:15:52.580Z,1.42
2023-02-27T14:18:57.806Z,1.80
2023-02-27T14:22:12.673Z,1.60
2023-02-27T14:25:22.800Z,1.58
2023-02-27T14:28:47.479Z,1.60
2023-02-27T14:31:51.994Z,1.75
2023-02-27T14:34:54.664Z,1.60
2023-02-27T14:37:56.514Z,1.80
2023-02-27T14:41:20.917Z,1.65
2023-02-27T14:44:25.553Z,1.98
2023-02-27T14:47:32.608Z,1.42
2023-02-27T14:50:38.794Z,1.60
2023-02-27T14:53:40.263Z,1.95
2023-02-27T14:56:52.699Z,1.90
2023-02-27T14:59:54.583Z,1.90
2023-02-27T15:02:58.530Z,1.90
2023-02-27T15:06:02.573Z,1.45
2023-02-27T15:09:04.645Z,1.92
2023-02-27T15:12:06.434Z,2.08
2023-02-27T15:15:19.233Z,2.33
2023-02-27T15:18:22.857Z,2.10
2023-02-27T15:21:27.321Z,2.35
2023-02-27T15:24:31.408Z,2.20
2023-02-27T15:27:38.052Z,2.50
2023-02-27T15:30:39.531Z,2.15
2023-02-27T15:33:42.151Z,2.30
2023-02-27T15:36:55.936Z,2.10
2023-02-27T15:39:58.842Z,2.33
2023-02-27T15:43:01.114Z,2.38
2023-02-27T15:46:02.854Z,2.28
2023-02-27T15:49:04.621Z,2.15
2023-02-27T15:52:14.846Z,1.88
2023-02-27T15:55:39.645Z,1.85
2023-02-27T15:58:49.851Z,2.17
2023-02-27T16:01:52.461Z,1.77
2023-02-27T16:04:53.923Z,3.40
2023-02-27T16:07:55.677Z,4.80
2023-02-27T16:10:57.110Z,2.35
2023-02-27T16:13:58.771Z,2.15
2023-02-27T16:17:00.149Z,1.92
2023-02-27T16:20:22.376Z,1.92
2023-02-27T16:23:27.836Z,1.80
2023-02-27T16:26:34.422Z,1.70
2023-02-27T16:29:41.620Z,1.85
2023-02-27T16:32:43.356Z,1.95
2023-02-27T16:35:44.945Z,2.08
2023-02-27T16:38:47.027Z,2.08
2023-02-27T16:41:48.508Z,2.15
2023-02-27T16:44:50.210Z,2.38
2023-02-27T16:47:54.131Z,2.88
2023-02-27T16:50:55.552Z,1.60
2023-02-27T16:53:57.761Z,2.90
2023-02-27T16:56:59.138Z,3.05
2023-02-27T17:00:00.594Z,2.15
2023-02-27T17:03:02.098Z,1.67
2023-02-27T17:06:03.698Z,2.60
2023-02-27T17:09:05.113Z,2.20
2023-02-27T17:12:06.523Z,2.00
2023-02-27T17:15:08.052Z,2.53
2023-02-27T17:18:09.572Z,2.50
2023-02-27T17:21:11.007Z,2.83
2023-02-27T17:24:12.425Z,3.22
2023-02-27T17:27:13.908Z,3.00
2023-02-27T17:30:15.751Z,2.42
2023-02-27T17:33:17.606Z,2.53
2023-02-27T17:36:19.912Z,2.78
2023-02-27T17:39:21.336Z,2.90
2023-02-27T17:42:22.722Z,3.35
2023-02-27T17:45:24.260Z,3.10
2023-02-27T17:48:25.656Z,3.40
2023-02-27T17:51:28.479Z,2.75
2023-02-27T17:54:29.895Z,3.08
2023-02-27T17:57:34.271Z,3.72
2023-02-27T18:00:35.797Z,2.95
2023-02-27T18:03:38.056Z,3.25
2023-02-27T18:06:39.548Z,3.00
2023-02-27T18:09:41.080Z,2.67
2023-02-27T18:12:42.829Z,2.78
2023-02-27T18:15:45.810Z,2.92
2023-02-27T18:18:47.896Z,2.70
2023-02-27T18:21:49.365Z,3.13
2023-02-27T18:24:54.851Z,2.78
2023-02-27T18:27:56.890Z,3.53
2023-02-27T18:30:58.587Z,4.00
2023-02-27T18:34:01.352Z,3.40
2023-02-27T18:37:02.793Z,5.47
2023-02-27T18:40:05.063Z,4.93
2023-02-27T18:43:06.552Z,4.93
2023-02-27T18:46:08.802Z,4.88
2023-02-27T18:49:10.269Z,5.72
2023-02-27T18:52:11.690Z,7.00
2023-02-27T18:55:14.022Z,7.15
2023-02-27T18:58:15.399Z,10.00
2023-02-27T19:01:27.120Z,5.93
2023-02-27T19:04:32.160Z,5.05
2023-02-27T19:07:33.556Z,8.15
2023-02-27T19:10:38.722Z,8.38
2023-02-27T19:13:40.251Z,5.40
2023-02-27T19:16:41.965Z,4.32
2023-02-27T19:19:43.382Z,3.60
2023-02-27T19:22:44.835Z,3.35
2023-02-27T19:25:46.254Z,3.25
2023-02-27T19:28:50.697Z,4.10
2023-02-27T19:31:52.211Z,3.60
2023-02-27T19:34:53.706Z,4.50
2023-02-27T19:37:55.169Z,4.93
2023-02-27T19:41:00.847Z,6.25
2023-02-27T19:44:02.240Z,19.25
2023-02-27T19:47:03.806Z,8.23
2023-02-27T19:50:05.951Z,7.28
2023-02-27T19:53:07.314Z,7.53
2023-02-27T19:56:20.888Z,8.82
2023-02-27T20:02:23.596Z,8.45
2023-02-27T20:05:25.101Z,11.13
2023-02-27T20:08:26.504Z,9.48
2023-02-27T20:11:30.070Z,8.43
2023-02-27T20:14:31.434Z,6.95
2023-02-27T20:17:33.080Z,6.60
2023-02-27T20:20:34.495Z,5.72
2023-02-27T20:23:38.754Z,4.60
2023-02-27T20:26:43.045Z,3.97
2023-02-27T20:29:44.479Z,4.22
2023-02-27T20:32:45.939Z,4.50
2023-02-27T20:35:47.366Z,4.60
2023-02-27T20:38:48.919Z,4.25
2023-02-27T20:41:50.467Z,7.18
2023-02-27T20:44:51.901Z,6.35
2023-02-27T20:47:53.361Z,5.93
2023-02-27T20:50:56.242Z,5.25
2023-02-27T20:53:59.609Z,6.32
2023-02-27T21:00:04.437Z,5.25
2023-02-27T21:03:05.903Z,6.57
2023-02-27T21:06:10.040Z,5.35
2023-02-27T21:09:11.518Z,4.97
2023-02-27T21:12:13.382Z,5.55
2023-02-27T21:15:14.855Z,6.35
2023-02-27T21:18:16.442Z,7.88
2023-02-27T21:21:20.908Z,8.15
2023-02-27T21:24:22.704Z,8.15
2023-02-27T21:27:24.212Z,7.35
2023-02-27T21:30:25.619Z,8.52
2023-02-27T21:33:27.048Z,9.18
2023-02-27T21:36:31.830Z,8.88
2023-02-27T21:39:33.255Z,9.07
2023-02-27T21:42:34.625Z,9.88
2023-02-27T21:45:37.044Z,9.45
2023-02-27T21:48:39.578Z,9.43
2023-02-27T21:51:41.421Z,7.30
2023-02-27T21:54:42.951Z,6.82
2023-02-27T21:57:44.318Z,5.50
2023-02-27T22:00:45.716Z,6.57
2023-02-27T22:03:49.412Z,5.90
2023-02-27T22:06:51.924Z,7.22
2023-02-27T22:09:53.338Z,8.57
2023-02-27T22:12:54.715Z,10.23
2023-02-27T22:15:56.211Z,8.07
2023-02-27T22:18:57.648Z,7.00
2023-02-27T22:21:59.055Z,6.85
2023-02-27T22:25:00.550Z,6.15
2023-02-27T22:28:02.181Z,6.60
2023-02-27T22:31:17.093Z,11.15
2023-02-27T22:34:18.570Z,13.57
2023-02-27T22:37:19.996Z,6.68
2023-02-27T22:40:21.393Z,6.68
2023-02-27T22:43:22.797Z,4.93
2023-02-27T22:46:29.869Z,4.97
2023-02-27T22:49:31.275Z,5.18
2023-02-27T22:52:35.631Z,5.07
2023-02-27T22:55:37.015Z,4.90
2023-02-27T22:58:39.548Z,4.72
2023-02-27T23:01:40.982Z,4.73
2023-02-27T23:04:42.886Z,5.97
2023-02-27T23:07:44.276Z,7.07
2023-02-27T23:10:45.666Z,7.32
2023-02-27T23:13:47.221Z,6.50
2023-02-27T23:16:48.692Z,7.47
2023-02-27T23:19:50.094Z,6.03
2023-02-27T23:22:52.620Z,6.53
2023-02-27T23:25:54.018Z,6.30
2023-02-27T23:28:56.518Z,6.72
2023-02-27T23:31:58.098Z,7.80
2023-02-27T23:34:59.514Z,8.13
2023-02-27T23:38:00.914Z,7.30
2023-02-27T23:41:06.934Z,7.40
2023-02-27T23:44:08.345Z,9.02
2023-02-27T23:47:09.834Z,11.27
2023-02-27T23:50:12.300Z,9.20
2023-02-27T23:53:13.846Z,5.27
2023-02-27T23:56:26.181Z,3.72
2023-02-27T23:59:28.176Z,3.40
